Extreme high temperature From: 23-07-2018 05:00 Until: 24-07-2018 01:00 warning for: Extreme high temperature Level: Yellow info button
suomi:
Hellevaroitus: Lähivuorokauden aikana on odotettavissa tukalaa hellettä.

svenska:
Varning för värmebölja: Under det närmaste dygnet är den svåra hettan att vänta.

english:
Heat wave warning: Warm weather is expected during the coming 24 hours. 


Thunder radar more information blitzortung!


Löydät sääaseman tiedot myös:

European Weather Network

Finland Weather Exchange

Weather Underground

AWEKAS



Weather Underground säähistoriasivu

Päivittäin yhteenveto Helmikuu 18, 2017 Yksiköt:  Molemmat    Englantilaiset   Metriset
« Edellinen Päivä
Seuraava Päivä »
Päivittäin Viikoittain Kuukausittain Vuosittain Mukautettu
  Korkea: Matala: Keskiarvo:
Lämpötila: TemperatureC °F /  -17.8 °C -0.5 °F /  -18.1 °C 1.8 °F /  -16.8 °C
Kastepiste: DewpointC °F /  -17.8 °C -2.4 °F /  -19.1 °C -0.4 °F /  -18 °C
Kosteus: Humidity % 75 % 84 %
Tuulen nopeus: WindSpeedKMH mph /  0 km/h - 3.6 mph /  5.8 km/h
Tuulenpuuska: WindSpeedGustKMH mph /  0 km/h - -
Tuuli:- - WSW
Ilmanpaine: PressurehPa in /  0 hPa 998.2 in /  33799.1 hPa -
Sade: 0.0 in /  0 mm    
Historical Graphs
 
 
Taulukkotiedot Helmikuu 18, 2017
Aika Lämpötila Kastepiste Ilmanpaine Tuuli Tuulen nopeus Tuulenpuuska Kosteus Sademäärä (tunneittain)
TemperatureC °F /  -17.8 °C DewpointC °F /  -17.8 °C PressurehPa in /  0 hPa Calm     Humidity % HourlyPrecipMM in /  0 mm
00:00 0.4 °F /  -17.6 °C -2.1 °F /  -18.9 °C 1007.0 in /  34097 hPa West 4.8 mph /  7.7 km/h 12.9 mph /  20.8 km/h 83 % 0.0 in /  0 mm
00:15 0.4 °F /  -17.6 °C -2.2 °F /  -19 °C 1007.0 in /  34097 hPa West 3.2 mph /  5.1 km/h 11.3 mph /  18.2 km/h 83 % 0.0 in /  0 mm
00:30 0.3 °F /  -17.6 °C -2.2 °F /  -19 °C 1007.0 in /  34097 hPa West 3.2 mph /  5.1 km/h 12.9 mph /  20.8 km/h 83 % 0.0 in /  0 mm
00:45 0.2 °F /  -17.7 °C -2.2 °F /  -19 °C 1006.7 in /  34086.9 hPa WSW 3.2 mph /  5.1 km/h 12.9 mph /  20.8 km/h 84 % 0.0 in /  0 mm
01:00 0.3 °F /  -17.6 °C -2.1 °F /  -18.9 °C 1006.7 in /  34086.9 hPa WSW 4.8 mph /  7.7 km/h 16.1 mph /  25.9 km/h 84 % 0.0 in /  0 mm
01:15 0.2 °F /  -17.7 °C -2.2 °F /  -19 °C 1007.0 in /  34097 hPa WSW 4.8 mph /  7.7 km/h 16.1 mph /  25.9 km/h 84 % 0.0 in /  0 mm
01:30 0.2 °F /  -17.7 °C -2.2 °F /  -19 °C 1007.0 in /  34097 hPa WSW 4.8 mph /  7.7 km/h 17.7 mph /  28.5 km/h 84 % 0.0 in /  0 mm
01:45 -0.1 °F /  -17.8 °C -2.4 °F /  -19.1 °C 1007.0 in /  34097 hPa SW 3.2 mph /  5.1 km/h 9.7 mph /  15.6 km/h 84 % 0.0 in /  0 mm
02:00 -0.1 °F /  -17.8 °C -2.4 °F /  -19.1 °C 1006.7 in /  34086.9 hPa WSW 4.8 mph /  7.7 km/h 17.7 mph /  28.5 km/h 84 % 0.0 in /  0 mm
02:15 -0.2 °F /  -17.9 °C -2.4 °F /  -19.1 °C 1006.7 in /  34086.9 hPa WSW 4.8 mph /  7.7 km/h 14.5 mph /  23.3 km/h 85 % 0.0 in /  0 mm
02:45 -0.2 °F /  -17.9 °C -2.4 °F /  -19.1 °C 1006.7 in /  34086.9 hPa West 4.8 mph /  7.7 km/h 12.9 mph /  20.8 km/h 85 % 0.0 in /  0 mm
03:00 -0.3 °F /  -17.9 °C -2.2 °F /  -19 °C 1006.7 in /  34086.9 hPa WSW 4.8 mph /  7.7 km/h 14.5 mph /  23.3 km/h 87 % 0.0 in /  0 mm
03:15 -0.5 °F /  -18.1 °C -2.4 °F /  -19.1 °C 1006.7 in /  34086.9 hPa WSW 3.2 mph /  5.1 km/h 11.3 mph /  18.2 km/h 87 % 0.0 in /  0 mm
03:45 -0.4 °F /  -18 °C -2.2 °F /  -19 °C 1006.3 in /  34073.3 hPa WSW 4.8 mph /  7.7 km/h 17.7 mph /  28.5 km/h 88 % 0.0 in /  0 mm
04:00 -0.4 °F /  -18 °C -2.1 °F /  -18.9 °C 1006.3 in /  34073.3 hPa SW 4.8 mph /  7.7 km/h 12.9 mph /  20.8 km/h 88 % 0.0 in /  0 mm
04:15 -0.3 °F /  -17.9 °C -2.0 °F /  -18.9 °C 1006.0 in /  34063.2 hPa SW 3.2 mph /  5.1 km/h 11.3 mph /  18.2 km/h 88 % 0.0 in /  0 mm
04:30 -0.2 °F /  -17.9 °C -2.0 °F /  -18.9 °C 1006.0 in /  34063.2 hPa SW 4.8 mph /  7.7 km/h 11.3 mph /  18.2 km/h 88 % 0.0 in /  0 mm
04:45 -0.2 °F /  -17.9 °C -2.0 °F /  -18.9 °C 1005.6 in /  34049.6 hPa SW 4.8 mph /  7.7 km/h 9.7 mph /  15.6 km/h 88 % 0.0 in /  0 mm
05:00 -0.2 °F /  -17.9 °C -1.9 °F /  -18.8 °C 1005.6 in /  34049.6 hPa SW 4.8 mph /  7.7 km/h 12.9 mph /  20.8 km/h 88 % 0.0 in /  0 mm
05:15 -0.1 °F /  -17.8 °C -1.9 °F /  -18.8 °C 1005.3 in /  34039.5 hPa SW 4.8 mph /  7.7 km/h 17.7 mph /  28.5 km/h 88 % 0.0 in /  0 mm
05:45 -0.1 °F /  -17.8 °C -1.8 °F /  -18.8 °C 1005.6 in /  34049.6 hPa SW 4.8 mph /  7.7 km/h 9.7 mph /  15.6 km/h 88 % 0.0 in /  0 mm
06:00 0.1 °F /  -17.7 °C -1.9 °F /  -18.8 °C 1005.3 in /  34039.5 hPa SSW 4.8 mph /  7.7 km/h 9.7 mph /  15.6 km/h 87 % 0.0 in /  0 mm
06:15 0.2 °F /  -17.7 °C -1.7 °F /  -18.7 °C 1005.0 in /  34029.3 hPa SSW 3.2 mph /  5.1 km/h 12.9 mph /  20.8 km/h 87 % 0.0 in /  0 mm
06:30 0.3 °F /  -17.6 °C -1.7 °F /  -18.7 °C 1004.6 in /  34015.8 hPa SSW 6.4 mph /  10.3 km/h 17.7 mph /  28.5 km/h 86 % 0.0 in /  0 mm
06:45 0.4 °F /  -17.6 °C -1.7 °F /  -18.7 °C 1004.6 in /  34015.8 hPa SSW 3.2 mph /  5.1 km/h 11.3 mph /  18.2 km/h 86 % 0.0 in /  0 mm
07:15 0.7 °F /  -17.4 °C -1.6 °F /  -18.7 °C 1004.3 in /  34005.6 hPa South 3.2 mph /  5.1 km/h 16.1 mph /  25.9 km/h 85 % 0.0 in /  0 mm
07:30 0.8 °F /  -17.3 °C -1.4 °F /  -18.6 °C 1004.3 in /  34005.6 hPa SSW 4.8 mph /  7.7 km/h 16.1 mph /  25.9 km/h 85 % 0.0 in /  0 mm
07:45 0.9 °F /  -17.3 °C -1.3 °F /  -18.5 °C 1003.9 in /  33992.1 hPa SSW 6.4 mph /  10.3 km/h 16.1 mph /  25.9 km/h 85 % 0.0 in /  0 mm
08:15 1.2 °F /  -17.1 °C -1.0 °F /  -18.3 °C 1003.9 in /  33992.1 hPa SW 6.4 mph /  10.3 km/h 17.7 mph /  28.5 km/h 85 % 0.0 in /  0 mm
08:30 1.4 °F /  -17 °C -0.5 °F /  -18.1 °C 1003.6 in /  33981.9 hPa SSW 3.2 mph /  5.1 km/h 12.9 mph /  20.8 km/h 87 % 0.0 in /  0 mm
08:45 1.3 °F /  -17.1 °C -0.4 °F /  -18 °C 1003.6 in /  33981.9 hPa SW 4.8 mph /  7.7 km/h 12.9 mph /  20.8 km/h 88 % 0.0 in /  0 mm
09:00 1.4 °F /  -17 °C -0.2 °F /  -17.9 °C 1003.6 in /  33981.9 hPa SW 4.8 mph /  7.7 km/h 16.1 mph /  25.9 km/h 89 % 0.0 in /  0 mm
09:15 1.4 °F /  -17 °C -0.1 °F /  -17.8 °C 1003.3 in /  33971.7 hPa SW 4.8 mph /  7.7 km/h 22.5 mph /  36.2 km/h 90 % 0.0 in /  0 mm
09:45 1.7 °F /  -16.8 °C 0.3 °F /  -17.6 °C 1002.9 in /  33958.2 hPa SSW 4.8 mph /  7.7 km/h 14.5 mph /  23.3 km/h 90 % 0.0 in /  0 mm
10:00 2.2 °F /  -16.6 °C 0.3 °F /  -17.6 °C 1002.9 in /  33958.2 hPa WSW 4.8 mph /  7.7 km/h 17.7 mph /  28.5 km/h 87 % 0.0 in /  0 mm
10:15 2.6 °F /  -16.3 °C 0.3 °F /  -17.6 °C 1002.9 in /  33958.2 hPa West 3.2 mph /  5.1 km/h 9.7 mph /  15.6 km/h 85 % 0.0 in /  0 mm
10:30 2.9 °F /  -16.2 °C 0.5 °F /  -17.5 °C 1002.6 in /  33948 hPa WSW 4.8 mph /  7.7 km/h 20.9 mph /  33.6 km/h 84 % 0.0 in /  0 mm
10:45 3.2 °F /  -16 °C 0.6 °F /  -17.4 °C 1002.6 in /  33948 hPa WSW 4.8 mph /  7.7 km/h 19.3 mph /  31.1 km/h 83 % 0.0 in /  0 mm
11:00 3.4 °F /  -15.9 °C 0.7 °F /  -17.4 °C 1002.6 in /  33948 hPa West 6.4 mph /  10.3 km/h 19.3 mph /  31.1 km/h 82 % 0.0 in /  0 mm
11:15 3.8 °F /  -15.7 °C 0.9 °F /  -17.3 °C 1002.6 in /  33948 hPa WNW 6.4 mph /  10.3 km/h 20.9 mph /  33.6 km/h 81 % 0.0 in /  0 mm
11:30 4.3 °F /  -15.4 °C 1.0 °F /  -17.2 °C 1002.6 in /  33948 hPa WNW 8.0 mph /  12.9 km/h 17.7 mph /  28.5 km/h 79 % 0.0 in /  0 mm
11:45 4.7 °F /  -15.2 °C 1.2 °F /  -17.1 °C 1002.6 in /  33948 hPa WNW 8.0 mph /  12.9 km/h 22.5 mph /  36.2 km/h 78 % 0.0 in /  0 mm
12:00 4.8 °F /  -15.1 °C 1.1 °F /  -17.2 °C 1002.6 in /  33948 hPa WNW 8.0 mph /  12.9 km/h 25.7 mph /  41.4 km/h 77 % 0.0 in /  0 mm
12:15 4.9 °F /  -15.1 °C 1.1 °F /  -17.2 °C 1002.6 in /  33948 hPa WNW 8.0 mph /  12.9 km/h 24.1 mph /  38.8 km/h 76 % 0.0 in /  0 mm
12:30 4.9 °F /  -15.1 °C 0.9 °F /  -17.3 °C 1002.6 in /  33948 hPa WNW 9.7 mph /  15.6 km/h 24.1 mph /  38.8 km/h 75 % 0.0 in /  0 mm
12:45 4.9 °F /  -15.1 °C 0.9 °F /  -17.3 °C 1002.6 in /  33948 hPa WNW 9.7 mph /  15.6 km/h 24.1 mph /  38.8 km/h 75 % 0.0 in /  0 mm
13:00 4.8 °F /  -15.1 °C 0.8 °F /  -17.3 °C 1002.6 in /  33948 hPa WNW 6.4 mph /  10.3 km/h 20.9 mph /  33.6 km/h 75 % 0.0 in /  0 mm
13:15 4.8 °F /  -15.1 °C 0.7 °F /  -17.4 °C 1002.6 in /  33948 hPa WNW 8.0 mph /  12.9 km/h 29.0 mph /  46.7 km/h 75 % 0.0 in /  0 mm
13:30 4.7 °F /  -15.2 °C 0.7 °F /  -17.4 °C 1002.6 in /  33948 hPa NW 11.3 mph /  18.2 km/h 20.9 mph /  33.6 km/h 75 % 0.0 in /  0 mm
13:45 4.6 °F /  -15.2 °C 0.6 °F /  -17.4 °C 1002.9 in /  33958.2 hPa NW 9.7 mph /  15.6 km/h 25.7 mph /  41.4 km/h 75 % 0.0 in /  0 mm
14:00 4.5 °F /  -15.3 °C 0.5 °F /  -17.5 °C 1002.9 in /  33958.2 hPa NW 9.7 mph /  15.6 km/h 22.5 mph /  36.2 km/h 75 % 0.0 in /  0 mm
14:15 4.3 °F /  -15.4 °C 0.3 °F /  -17.6 °C 1002.9 in /  33958.2 hPa NW 8.0 mph /  12.9 km/h 19.3 mph /  31.1 km/h 75 % 0.0 in /  0 mm
14:30 4.3 °F /  -15.4 °C 0.2 °F /  -17.7 °C 1002.9 in /  33958.2 hPa NW 6.4 mph /  10.3 km/h 14.5 mph /  23.3 km/h 75 % 0.0 in /  0 mm
14:45 4.2 °F /  -15.4 °C 0.2 °F /  -17.7 °C 1002.9 in /  33958.2 hPa NW 6.4 mph /  10.3 km/h 14.5 mph /  23.3 km/h 75 % 0.0 in /  0 mm
15:00 4.2 °F /  -15.4 °C 0.4 °F /  -17.6 °C 1002.9 in /  33958.2 hPa NW 3.2 mph /  5.1 km/h 9.7 mph /  15.6 km/h 76 % 0.0 in /  0 mm
15:15 4.2 °F /  -15.4 °C 0.5 °F /  -17.5 °C 1002.9 in /  33958.2 hPa WNW 3.2 mph /  5.1 km/h 9.7 mph /  15.6 km/h 77 % 0.0 in /  0 mm
15:30 4.1 °F /  -15.5 °C 0.4 °F /  -17.6 °C 1002.9 in /  33958.2 hPa Calm   4.8 mph /  7.7 km/h 77 % 0.0 in /  0 mm
15:45 4.0 °F /  -15.6 °C 0.5 °F /  -17.5 °C 1002.9 in /  33958.2 hPa West 1.6 mph /  2.6 km/h 6.4 mph /  10.3 km/h 78 % 0.0 in /  0 mm
16:00 3.9 °F /  -15.6 °C 0.5 °F /  -17.5 °C 1002.6 in /  33948 hPa WNW 1.6 mph /  2.6 km/h 6.4 mph /  10.3 km/h 78 % 0.0 in /  0 mm
16:15 3.8 °F /  -15.7 °C 0.5 °F /  -17.5 °C 1002.9 in /  33958.2 hPa Calm   3.2 mph /  5.1 km/h 79 % 0.0 in /  0 mm
16:30 3.6 °F /  -15.8 °C 0.5 °F /  -17.5 °C 1002.9 in /  33958.2 hPa Calm   3.2 mph /  5.1 km/h 80 % 0.0 in /  0 mm
16:45 3.4 °F /  -15.9 °C 0.3 °F /  -17.6 °C 1002.9 in /  33958.2 hPa Calm   6.4 mph /  10.3 km/h 80 % 0.0 in /  0 mm
17:00 3.3 °F /  -15.9 °C 0.5 °F /  -17.5 °C 1002.9 in /  33958.2 hPa WNW 1.6 mph /  2.6 km/h 9.7 mph /  15.6 km/h 82 % 0.0 in /  0 mm
17:15 3.1 °F /  -16.1 °C 0.5 °F /  -17.5 °C 1002.9 in /  33958.2 hPa WNW 1.6 mph /  2.6 km/h 11.3 mph /  18.2 km/h 83 % 0.0 in /  0 mm
17:30 3.0 °F /  -16.1 °C 0.1 °F /  -17.7 °C 1002.9 in /  33958.2 hPa WSW 1.6 mph /  2.6 km/h 9.7 mph /  15.6 km/h 81 % 0.0 in /  0 mm
17:45 2.8 °F /  -16.2 °C -0.1 °F /  -17.8 °C 1002.6 in /  33948 hPa WNW 1.6 mph /  2.6 km/h 8.0 mph /  12.9 km/h 81 % 0.0 in /  0 mm
18:00 2.6 °F /  -16.3 °C -0.2 °F /  -17.9 °C 1002.6 in /  33948 hPa WSW 1.6 mph /  2.6 km/h 9.7 mph /  15.6 km/h 82 % 0.0 in /  0 mm
18:15 2.4 °F /  -16.4 °C 0.1 °F /  -17.7 °C 1002.6 in /  33948 hPa SW 1.6 mph /  2.6 km/h 8.0 mph /  12.9 km/h 85 % 0.0 in /  0 mm
18:30 2.1 °F /  -16.6 °C 0.2 °F /  -17.7 °C 1002.6 in /  33948 hPa Calm   4.8 mph /  7.7 km/h 87 % 0.0 in /  0 mm
18:45 1.8 °F /  -16.8 °C 0.2 °F /  -17.7 °C 1002.3 in /  33937.9 hPa Calm   3.2 mph /  5.1 km/h 89 % 0.0 in /  0 mm
19:00 1.6 °F /  -16.9 °C 0.1 °F /  -17.7 °C 1002.3 in /  33937.9 hPa Calm   4.8 mph /  7.7 km/h 90 % 0.0 in /  0 mm
19:15 1.4 °F /  -17 °C 0.1 °F /  -17.7 °C 1001.9 in /  33924.3 hPa Calm   3.2 mph /  5.1 km/h 91 % 0.0 in /  0 mm
19:30 1.3 °F /  -17.1 °C 0.2 °F /  -17.7 °C 1001.9 in /  33924.3 hPa SW 1.6 mph /  2.6 km/h 6.4 mph /  10.3 km/h 92 % 0.0 in /  0 mm
19:45 1.3 °F /  -17.1 °C 0.3 °F /  -17.6 °C 1001.6 in /  33914.2 hPa Calm   4.8 mph /  7.7 km/h 93 % 0.0 in /  0 mm
20:00 1.2 °F /  -17.1 °C 0.4 °F /  -17.6 °C 1001.6 in /  33914.2 hPa Calm   3.2 mph /  5.1 km/h 94 % 0.0 in /  0 mm
20:15 1.2 °F /  -17.1 °C 0.3 °F /  -17.6 °C 1001.6 in /  33914.2 hPa Calm     94 % 0.0 in /  0 mm
20:30 1.1 °F /  -17.2 °C 0.2 °F /  -17.7 °C 1001.2 in /  33900.6 hPa Calm   1.6 mph /  2.6 km/h 94 % 0.0 in /  0 mm
20:45 0.9 °F /  -17.3 °C 0.1 °F /  -17.7 °C 1001.2 in /  33900.6 hPa Calm   1.6 mph /  2.6 km/h 94 % 0.0 in /  0 mm
21:00 0.8 °F /  -17.3 °C 0.1 °F /  -17.7 °C 1000.9 in /  33890.5 hPa Calm   3.2 mph /  5.1 km/h 95 % 0.0 in /  0 mm
21:15 0.8 °F /  -17.3 °C 0.1 °F /  -17.7 °C 1000.6 in /  33880.3 hPa Calm   3.2 mph /  5.1 km/h 95 % 0.0 in /  0 mm
21:30 0.7 °F /  -17.4 °C 0.0 °F /  -17.8 °C 1000.2 in /  33866.8 hPa Calm   3.2 mph /  5.1 km/h 95 % 0.0 in /  0 mm
21:45 0.6 °F /  -17.4 °C -0.1 °F /  -17.8 °C 1000.2 in /  33866.8 hPa Calm   4.8 mph /  7.7 km/h 95 % 0.0 in /  0 mm
22:00 0.6 °F /  -17.4 °C 0.0 °F /  -17.8 °C 999.9 in /  33856.6 hPa Calm   1.6 mph /  2.6 km/h 96 % 0.0 in /  0 mm
22:15 0.6 °F /  -17.4 °C 0.0 °F /  -17.8 °C 999.5 in /  33843.1 hPa Calm   3.2 mph /  5.1 km/h 96 % 0.0 in /  0 mm
22:30 0.7 °F /  -17.4 °C 0.1 °F /  -17.7 °C 999.2 in /  33832.9 hPa Calm   3.2 mph /  5.1 km/h 96 % 0.0 in /  0 mm
22:45 0.8 °F /  -17.3 °C 0.2 °F /  -17.7 °C 999.2 in /  33832.9 hPa Calm   4.8 mph /  7.7 km/h 96 % 0.0 in /  0 mm
23:00 0.9 °F /  -17.3 °C 0.4 °F /  -17.6 °C 998.9 in /  33822.8 hPa SSW 1.6 mph /  2.6 km/h 9.7 mph /  15.6 km/h 96 % 0.0 in /  0 mm
23:15 1.2 °F /  -17.1 °C 0.6 °F /  -17.4 °C 998.5 in /  33809.2 hPa SSW 1.6 mph /  2.6 km/h 9.7 mph /  15.6 km/h 96 % 0.0 in /  0 mm
23:30 1.3 °F /  -17.1 °C 0.9 °F /  -17.3 °C 998.5 in /  33809.2 hPa SSW 3.2 mph /  5.1 km/h 11.3 mph /  18.2 km/h 97 % 0.0 in /  0 mm
23:45 1.4 °F /  -17 °C 0.8 °F /  -17.3 °C 998.2 in /  33799.1 hPa SSW 1.6 mph /  2.6 km/h 6.4 mph /  10.3 km/h 96 % 0.0 in /  0 mm
Esan sääasema
Terveisin Weather Underground - 2.75 mb

Alkuperäinen skripti  Jim McMurry - jmcmurry@mwt.net Sovitettu myös templatelle  Wim van der Kuil - Leuven-Template.eu

Laitteet joita käytämme:

Sääasema
Davis VP2

Sääasemaohjelma
Cumulus

Sääaseman tietokone
Asus EeePC

Palveluntarjoaja
Suncomet

Davis VP2

Cumulus

Asus EeePC

Suncomet